Lake Suzy, Florida
Current Conditions -  °F | °C
As of 4:53 PM on Friday 28 Nov 2014 (Local Time) from KPGD Reporting Station
Clear Clear  
Wind Chill: 17°   Ceiling: Unl
Heat Index: 17°   Visibility: 10mi
Dew Point:   Wind: 8mph
Humidity: 38%   Direction: 30°NNE
Pressure: 30.24"   Gusts: NA
Location:  27.0717°N, 81.9802°W
Report Text: KPGD 282153Z 03007KT 10SM CLR 17/02 A3024 RMK AO2 SLP240 T01670022
Loading
Personal Weather Stations






























Interactive Weather Map New forecast layout! Learn more

10-Day Weather Forecast

Advertisements
Track Severe Weather on mobile